Alabama Hills, California
Current Conditions -  °F | °C
As of 7:56 PM on Wednesday 22 Oct 2014 (Local Time) from KBIH Reporting Station
Clear Clear  
Wind Chill: 69°   Ceiling: Unl
Heat Index: 69°   Visibility: 10mi
Dew Point: 25°   Wind: 13mph
Humidity: 19%   Direction: 150°SSE
Pressure: 30.06"   Gusts: NA
Location:  36.6126°N, 118.162°W
Report Text: KBIH 230256Z AUTO 15011KT 10SM CLR 21/M04 A3006 RMK AO2 SLP153 T02061039 53013
Loading
Personal Weather Stations






























Interactive Weather Map
Tropical Storm Tracking
New forecast layout! Learn more

10-Day Weather Forecast

Advertisements
Track Severe Weather on mobile